createdAt,value
2023-11-05T00:02:45.639Z,4.32
2023-11-05T00:07:37.375Z,4.20
2023-11-05T00:12:29.118Z,4.60
2023-11-05T00:17:20.840Z,3.38
2023-11-05T00:22:12.642Z,3.50
2023-11-05T00:27:04.418Z,3.60
2023-11-05T00:31:56.182Z,3.05
2023-11-05T00:36:48.002Z,3.28
2023-11-05T00:41:39.929Z,2.80
2023-11-05T00:46:32.054Z,2.85
2023-11-05T00:51:23.884Z,2.70
2023-11-05T00:56:15.564Z,2.70
2023-11-05T01:01:07.352Z,2.95
2023-11-05T01:05:59.051Z,2.78
2023-11-05T01:10:51.208Z,2.60
2023-11-05T01:15:43.025Z,2.63
2023-11-05T01:20:34.831Z,2.67
2023-11-05T01:25:27.617Z,2.33
2023-11-05T01:30:20.444Z,2.42
2023-11-05T01:35:12.243Z,2.45
2023-11-05T01:40:04.732Z,2.58
2023-11-05T01:44:56.525Z,1.75
2023-11-05T01:49:48.389Z,2.00
2023-11-05T01:54:42.885Z,1.83
2023-11-05T01:59:35.198Z,1.45
2023-11-05T02:04:27.258Z,1.33
2023-11-05T02:09:19.427Z,1.33
2023-11-05T02:14:17.817Z,1.15
2023-11-05T02:19:10.131Z,0.90
2023-11-05T02:24:02.034Z,1.10
2023-11-05T02:28:53.767Z,0.90
2023-11-05T02:33:46.052Z,1.23
2023-11-05T02:38:38.804Z,1.13
2023-11-05T02:43:30.511Z,0.80
2023-11-05T02:48:22.447Z,0.95
2023-11-05T02:53:16.629Z,1.00
2023-11-05T02:58:08.389Z,0.80
2023-11-05T03:03:00.357Z,0.85
2023-11-05T03:07:52.703Z,0.98
2023-11-05T03:12:44.815Z,0.80
2023-11-05T03:17:38.780Z,1.10
2023-11-05T03:22:30.576Z,0.90
2023-11-05T03:27:22.286Z,0.77
2023-11-05T03:32:14.016Z,1.27
2023-11-05T03:37:06.077Z,0.90
2023-11-05T03:41:57.729Z,1.25
2023-11-05T03:46:49.570Z,0.90
2023-11-05T03:51:41.864Z,0.60
2023-11-05T03:56:34.168Z,0.90
2023-11-05T04:01:25.881Z,0.80
2023-11-05T04:06:18.841Z,0.55
2023-11-05T04:11:10.783Z,0.60
2023-11-05T04:16:03.190Z,1.00
2023-11-05T04:20:54.971Z,0.60
2023-11-05T04:25:46.790Z,0.80
2023-11-05T04:30:38.595Z,0.52
2023-11-05T04:35:30.291Z,0.70
2023-11-05T04:40:22.073Z,0.60
2023-11-05T04:45:15.514Z,0.60
2023-11-05T04:50:08.467Z,0.50
2023-11-05T04:55:01.395Z,0.63
2023-11-05T04:59:53.577Z,0.77
2023-11-05T05:04:45.519Z,0.73
2023-11-05T05:09:38.674Z,0.40
2023-11-05T05:14:30.542Z,0.68
2023-11-05T05:19:22.289Z,0.70
2023-11-05T05:24:14.240Z,0.60
2023-11-05T05:29:06.003Z,0.63
2023-11-05T05:33:57.944Z,0.40
2023-11-05T05:38:49.691Z,0.52
2023-11-05T05:43:41.499Z,0.40
2023-11-05T05:48:34.005Z,0.68
2023-11-05T05:53:25.874Z,0.40
2023-11-05T05:58:20.405Z,0.43
2023-11-05T06:03:12.319Z,0.93
2023-11-05T06:08:04.378Z,0.57
2023-11-05T06:12:56.195Z,1.00
2023-11-05T06:17:47.989Z,1.02
2023-11-05T06:22:40.066Z,0.95
2023-11-05T06:27:31.980Z,1.00
2023-11-05T06:32:23.755Z,1.20
2023-11-05T06:37:15.512Z,0.98
2023-11-05T06:42:07.684Z,1.95
2023-11-05T06:46:59.552Z,0.80
2023-11-05T06:51:51.404Z,0.80
2023-11-05T06:56:43.161Z,0.80
2023-11-05T07:01:35.541Z,0.70
2023-11-05T07:06:27.510Z,1.65
2023-11-05T07:11:19.332Z,0.70
2023-11-05T07:16:11.285Z,0.68
2023-11-05T07:21:03.283Z,0.80
2023-11-05T07:25:55.736Z,0.77
2023-11-05T07:30:47.531Z,0.77
2023-11-05T07:35:39.781Z,0.70
2023-11-05T07:40:31.594Z,0.70
2023-11-05T07:45:24.046Z,0.73
2023-11-05T07:50:16.029Z,0.57
2023-11-05T07:55:13.978Z,0.60
2023-11-05T08:00:08.497Z,0.50
2023-11-05T08:05:06.246Z,0.55
2023-11-05T08:09:58.598Z,0.85
2023-11-05T08:14:50.578Z,0.80
2023-11-05T08:19:42.934Z,0.50
2023-11-05T08:24:36.168Z,0.35
2023-11-05T08:29:28.836Z,0.50
2023-11-05T08:34:20.848Z,0.60
2023-11-05T08:39:12.715Z,0.45
2023-11-05T08:44:04.746Z,0.73
2023-11-05T08:48:56.598Z,0.50
2023-11-05T08:53:48.602Z,0.60
2023-11-05T08:58:40.298Z,0.80
2023-11-05T09:03:32.130Z,0.57
2023-11-05T09:08:24.966Z,0.60
2023-11-05T09:13:16.904Z,0.50
2023-11-05T09:18:08.894Z,0.60
2023-11-05T09:23:01.048Z,0.60
2023-11-05T09:27:53.067Z,0.60
2023-11-05T09:32:45.774Z,0.55
2023-11-05T09:37:37.788Z,0.65
2023-11-05T09:42:32.477Z,0.40
2023-11-05T09:47:24.768Z,0.70
2023-11-05T09:52:18.128Z,0.47
2023-11-05T09:57:10.416Z,0.70
2023-11-05T10:02:02.248Z,0.93
2023-11-05T10:06:54.660Z,1.08
2023-11-05T10:11:46.583Z,1.00
2023-11-05T10:16:38.681Z,1.55
2023-11-05T10:21:39.092Z,0.88
2023-11-05T10:26:32.942Z,1.00
2023-11-05T10:31:26.682Z,0.88
2023-11-05T10:36:19.970Z,1.00
2023-11-05T10:41:13.953Z,1.58
2023-11-05T10:46:07.598Z,1.35
2023-11-05T10:51:01.320Z,1.30
2023-11-05T10:55:53.177Z,1.10
2023-11-05T11:00:45.849Z,1.10
2023-11-05T11:05:43.960Z,1.95
2023-11-05T11:10:40.686Z,1.10
2023-11-05T11:15:34.390Z,1.35
2023-11-05T11:20:27.407Z,1.30
2023-11-05T11:25:20.628Z,1.35
2023-11-05T11:30:13.074Z,0.70
2023-11-05T11:35:08.510Z,0.82
2023-11-05T11:40:01.454Z,0.88
2023-11-05T11:44:54.502Z,0.60
2023-11-05T11:49:47.090Z,1.33
2023-11-05T11:54:38.930Z,0.85
2023-11-05T11:59:30.880Z,0.93
2023-11-05T12:04:24.607Z,0.60
2023-11-05T12:09:24.165Z,0.70
2023-11-05T12:14:22.543Z,0.90
2023-11-05T12:19:16.093Z,1.35
2023-11-05T12:24:10.707Z,0.73
2023-11-05T12:29:02.618Z,0.88
2023-11-05T12:33:56.564Z,0.80
2023-11-05T12:38:48.739Z,0.77
2023-11-05T12:43:41.619Z,0.73
2023-11-05T12:48:34.202Z,1.00
2023-11-05T12:53:26.200Z,0.95
2023-11-05T12:58:18.929Z,0.93
2023-11-05T13:03:10.867Z,0.68
2023-11-05T13:08:03.339Z,0.60
2023-11-05T13:12:55.072Z,0.73
2023-11-05T13:17:47.058Z,1.10
2023-11-05T13:22:41.865Z,1.25
2023-11-05T13:27:34.875Z,0.82
2023-11-05T13:32:26.797Z,0.80
2023-11-05T13:37:20.278Z,1.00
2023-11-05T13:42:12.398Z,1.02
2023-11-05T13:47:04.424Z,0.98
2023-11-05T13:51:56.153Z,0.80
2023-11-05T13:56:49.548Z,1.00
2023-11-05T14:01:41.307Z,1.15
2023-11-05T14:06:33.153Z,1.20
2023-11-05T14:11:25.457Z,1.00
2023-11-05T14:16:18.245Z,0.95
2023-11-05T14:21:10.083Z,1.20
2023-11-05T14:26:02.336Z,0.90
2023-11-05T14:30:55.709Z,1.55
2023-11-05T14:35:47.639Z,0.90
2023-11-05T14:40:39.459Z,1.17
2023-11-05T14:45:33.023Z,1.00
2023-11-05T14:50:27.265Z,1.38
2023-11-05T14:55:19.102Z,1.50
2023-11-05T15:00:12.690Z,1.50
2023-11-05T15:05:05.935Z,1.52
2023-11-05T15:09:58.445Z,1.92
2023-11-05T15:14:50.316Z,1.95
2023-11-05T15:19:42.108Z,1.88
2023-11-05T15:24:33.912Z,1.45
2023-11-05T15:29:25.863Z,1.80
2023-11-05T15:34:17.809Z,1.70
2023-11-05T15:39:11.509Z,1.80
2023-11-05T15:44:06.607Z,1.70
2023-11-05T15:48:59.214Z,1.58
2023-11-05T15:53:51.620Z,1.73
2023-11-05T15:58:43.552Z,1.20
2023-11-05T16:03:37.679Z,1.63
2023-11-05T16:08:29.990Z,1.77
2023-11-05T16:13:22.068Z,1.58
2023-11-05T16:18:14.432Z,1.20
2023-11-05T16:23:06.440Z,1.75
2023-11-05T16:27:58.260Z,1.83
2023-11-05T16:32:50.088Z,1.52
2023-11-05T16:37:41.960Z,1.13
2023-11-05T16:42:33.674Z,1.30
2023-11-05T16:47:25.539Z,1.65
2023-11-05T16:52:19.360Z,1.13
2023-11-05T16:57:11.335Z,1.88
2023-11-05T17:02:03.910Z,1.42
2023-11-05T17:06:55.871Z,1.55
2023-11-05T17:11:47.718Z,1.58
2023-11-05T17:16:43.525Z,1.48
2023-11-05T17:21:35.996Z,1.50
2023-11-05T17:26:27.695Z,1.33
2023-11-05T17:31:19.553Z,1.67
2023-11-05T17:36:14.320Z,1.83
2023-11-05T17:41:06.310Z,1.80
2023-11-05T17:45:58.140Z,2.30
2023-11-05T17:50:49.896Z,1.98
2023-11-05T17:55:41.719Z,1.92
2023-11-05T18:00:33.570Z,6.20
2023-11-05T18:05:25.516Z,3.22
2023-11-05T18:10:17.463Z,2.95
2023-11-05T18:15:10.236Z,2.72
2023-11-05T18:20:02.603Z,2.47
2023-11-05T18:24:54.323Z,2.38
2023-11-05T18:29:46.491Z,2.65
2023-11-05T18:34:38.322Z,3.15
2023-11-05T18:39:33.809Z,2.67
2023-11-05T18:44:25.539Z,2.25
2023-11-05T18:49:17.539Z,2.55
2023-11-05T18:54:11.582Z,2.50
2023-11-05T18:59:04.871Z,2.50
2023-11-05T19:03:56.841Z,2.63
2023-11-05T19:08:48.826Z,2.70
2023-11-05T19:13:40.589Z,2.85
2023-11-05T19:18:32.377Z,2.90
2023-11-05T19:23:24.138Z,4.07
2023-11-05T19:28:17.539Z,3.20
2023-11-05T19:33:09.659Z,2.83
2023-11-05T19:38:01.471Z,3.42
2023-11-05T19:42:53.430Z,2.72
2023-11-05T19:47:45.432Z,5.05
2023-11-05T19:52:37.195Z,5.28
2023-11-05T19:57:29.175Z,4.80
2023-11-05T20:02:22.747Z,4.43
2023-11-05T20:07:16.639Z,4.78
2023-11-05T20:12:08.883Z,6.57
2023-11-05T20:17:00.693Z,5.05
2023-11-05T20:21:54.599Z,7.50
2023-11-05T20:26:47.096Z,7.00
2023-11-05T20:31:39.224Z,5.53
2023-11-05T20:36:32.566Z,4.70
2023-11-05T20:41:24.957Z,4.10
2023-11-05T20:46:17.823Z,4.38
2023-11-05T20:51:23.421Z,3.92
2023-11-05T20:56:15.858Z,3.58
2023-11-05T21:01:08.284Z,3.40
2023-11-05T21:06:01.641Z,3.30
2023-11-05T21:10:58.074Z,3.40
2023-11-05T21:15:52.039Z,3.20
2023-11-05T21:20:44.551Z,2.78
2023-11-05T21:25:36.510Z,3.15
2023-11-05T21:30:28.734Z,3.10
2023-11-05T21:35:20.837Z,2.95
2023-11-05T21:40:13.719Z,2.75
2023-11-05T21:45:06.106Z,2.92
2023-11-05T21:49:57.892Z,2.35
2023-11-05T21:54:49.987Z,3.65
2023-11-05T21:59:42.100Z,2.65
2023-11-05T22:04:37.101Z,2.95
2023-11-05T22:09:32.003Z,2.58
2023-11-05T22:14:23.827Z,2.80
2023-11-05T22:19:16.157Z,3.20
2023-11-05T22:24:09.079Z,2.40
2023-11-05T22:29:01.760Z,2.53
2023-11-05T22:33:54.603Z,2.13
2023-11-05T22:38:46.422Z,2.33
2023-11-05T22:43:38.131Z,2.17
2023-11-05T22:48:29.947Z,3.25
2023-11-05T22:53:21.818Z,2.40
2023-11-05T22:58:13.580Z,2.25
2023-11-05T23:03:05.512Z,1.98
2023-11-05T23:07:57.491Z,2.00
2023-11-05T23:12:49.404Z,2.38
2023-11-05T23:17:41.538Z,1.90
2023-11-05T23:22:33.633Z,2.17
2023-11-05T23:27:25.431Z,2.20
2023-11-05T23:32:17.280Z,2.17
2023-11-05T23:37:09.074Z,2.03
2023-11-05T23:42:00.920Z,2.05
2023-11-05T23:46:52.816Z,1.90
2023-11-05T23:51:44.638Z,2.00
2023-11-05T23:56:36.371Z,2.13
